Time;durP1;ratioP1;P1;durP2;ratioP2;P2;SDS_P1;SDS_P2;PMS_P1;PMS_P2;Temp;Humidity;BMP_temperature;BMP_pressure;BME280_temperature;BME280_humidity;BME280_pressure;Samples;Min_cycle;Max_cycle;Signal;HPM_P1;HPM_P2
2023/04/18 00:01:37;;;;;;;14.85;8.13;;;;;;;7.72;72.66;102200.78;5058075;28;20040;-77
2023/04/18 00:04:06;;;;;;;15.30;8.00;;;;;;;7.69;73.55;102207.00;5058624;28;20616;-77
2023/04/18 00:06:31;;;;;;;17.92;8.18;;;;;;;7.67;74.16;102195.94;5048801;28;20032;-78
2023/04/18 00:08:56;;;;;;;15.88;7.68;;;;;;;7.62;74.33;102202.34;5045673;28;20039;-78
2023/04/18 00:11:22;;;;;;;18.77;8.20;;;;;;;7.57;74.25;102200.91;5062512;28;20040;-77
2023/04/18 00:13:47;;;;;;;15.55;8.68;;;;;;;7.52;73.21;102202.13;5080192;28;20044;-78
2023/04/18 00:16:13;;;;;;;18.52;9.15;;;;;;;7.45;72.90;102193.97;5060723;28;20025;-77
2023/04/18 00:18:39;;;;;;;17.42;8.50;;;;;;;7.43;72.85;102197.56;5067524;28;20613;-78
2023/04/18 00:21:05;;;;;;;21.48;8.57;;;;;;;7.39;73.32;102202.94;5050674;28;20033;-78
2023/04/18 00:23:32;;;;;;;18.45;8.73;;;;;;;7.37;73.81;102198.81;5022141;28;20133;-78
2023/04/18 00:25:58;;;;;;;18.48;9.00;;;;;;;7.31;73.69;102194.03;5063033;28;20036;-78
2023/04/18 00:28:24;;;;;;;19.98;8.60;;;;;;;7.26;73.15;102198.69;5057381;28;20041;-77
2023/04/18 00:30:49;;;;;;;16.92;9.63;;;;;;;7.25;73.24;102194.44;5059444;28;20028;-78
2023/04/18 00:33:15;;;;;;;16.85;8.50;;;;;;;7.22;73.84;102192.88;5063758;28;20047;-78
2023/04/18 00:35:41;;;;;;;19.02;8.52;;;;;;;7.21;74.17;102197.22;5061443;28;20422;-77
2023/04/18 00:38:06;;;;;;;15.80;8.38;;;;;;;7.16;74.40;102201.03;5044548;28;20037;-77
2023/04/18 00:40:32;;;;;;;15.10;7.90;;;;;;;7.11;74.60;102195.34;5060206;28;20501;-77
2023/04/18 00:42:58;;;;;;;16.88;8.10;;;;;;;7.08;74.67;102198.09;5048400;28;20174;-77
2023/04/18 00:45:23;;;;;;;18.25;8.95;;;;;;;7.04;74.34;102197.47;5050427;28;20028;-77
2023/04/18 00:47:49;;;;;;;17.52;8.10;;;;;;;7.01;74.20;102201.09;5049073;28;20028;-78
2023/04/18 00:50:15;;;;;;;23.90;8.95;;;;;;;7.04;73.38;102189.75;5063205;28;20051;-77
2023/04/18 00:52:42;;;;;;;13.43;7.80;;;;;;;7.04;73.93;102191.50;5063197;28;20380;-77
2023/04/18 00:55:08;;;;;;;16.52;8.48;;;;;;;6.99;74.48;102189.22;5061928;28;20728;-78
2023/04/18 00:57:33;;;;;;;17.73;8.23;;;;;;;7.00;74.54;102183.13;5037736;28;20066;-78
2023/04/18 01:00:00;;;;;;;20.27;9.23;;;;;;;6.98;75.16;102188.38;5047706;28;21833;-78
2023/04/18 01:02:30;;;;;;;18.90;8.70;;;;;;;6.96;75.10;102184.25;5037952;28;20048;-77
2023/04/18 01:04:57;;;;;;;20.27;9.10;;;;;;;6.98;75.89;102180.66;5055480;28;20111;-78
2023/04/18 01:07:24;;;;;;;17.42;9.00;;;;;;;7.10;76.22;102183.34;5041599;28;20501;-78
2023/04/18 01:09:51;;;;;;;19.98;9.30;;;;;;;7.12;75.94;102187.50;5056791;28;20115;-78
2023/04/18 01:12:19;;;;;;;16.23;8.85;;;;;;;7.05;77.23;102186.25;5057176;28;20486;-77
2023/04/18 01:14:44;;;;;;;18.08;9.65;;;;;;;7.06;77.27;102185.31;5036013;28;20047;-78
2023/04/18 01:17:12;;;;;;;18.95;9.05;;;;;;;6.95;78.38;102178.28;5033537;28;20051;-78
2023/04/18 01:19:38;;;;;;;21.25;8.98;;;;;;;6.91;79.67;102181.97;5033619;28;20570;-76
2023/04/18 01:22:06;;;;;;;19.42;9.75;;;;;;;6.85;80.48;102177.19;5049206;28;20511;-76
2023/04/18 01:24:32;;;;;;;17.98;9.38;;;;;;;6.85;80.68;102172.03;5061506;28;20024;-76
2023/04/18 01:26:58;;;;;;;18.27;9.77;;;;;;;6.86;81.28;102168.56;5049331;28;20041;-76
2023/04/18 01:29:25;;;;;;;20.83;10.15;;;;;;;6.91;81.41;102166.50;5041760;28;20519;-77
2023/04/18 01:31:50;;;;;;;17.65;9.70;;;;;;;6.89;82.34;102170.09;5062215;28;20160;-78
2023/04/18 01:34:19;;;;;;;20.90;10.43;;;;;;;6.82;82.43;102167.91;5061062;28;20124;-78
2023/04/18 01:36:45;;;;;;;19.27;10.52;;;;;;;6.89;83.13;102164.94;5042366;28;20116;-77
2023/04/18 01:39:11;;;;;;;19.02;10.00;;;;;;;6.91;82.67;102170.81;5047490;28;20036;-78
2023/04/18 01:41:36;;;;;;;19.20;9.02;;;;;;;6.81;83.52;102166.25;5056697;28;20044;-78
2023/04/18 01:44:02;;;;;;;17.42;9.68;;;;;;;6.74;83.79;102162.44;5077769;28;20040;-78
2023/04/18 01:46:28;;;;;;;18.75;9.95;;;;;;;6.66;84.50;102166.41;5047279;28;20594;-78
2023/04/18 01:48:54;;;;;;;18.13;10.07;;;;;;;6.60;84.78;102162.47;5027564;28;20040;-78
2023/04/18 01:51:20;;;;;;;18.73;9.43;;;;;;;6.63;85.16;102162.28;5041300;28;20039;-78
2023/04/18 01:53:45;;;;;;;17.25;10.73;;;;;;;6.58;85.42;102166.91;5062212;28;20032;-77
2023/04/18 01:56:11;;;;;;;21.75;9.73;;;;;;;6.60;85.25;102152.16;5030167;28;20029;-77
2023/04/18 01:58:37;;;;;;;18.75;9.60;;;;;;;6.56;85.29;102148.94;5043119;28;20037;-78
2023/04/18 02:01:02;;;;;;;18.85;9.77;;;;;;;6.46;86.13;102157.34;5079352;28;20028;-78
2023/04/18 02:03:28;;;;;;;20.65;10.02;;;;;;;6.38;86.59;102150.91;5043982;28;20040;-77
2023/04/18 02:05:54;;;;;;;16.42;9.55;;;;;;;6.41;86.15;102155.06;5057923;28;20438;-78
2023/04/18 02:08:20;;;;;;;18.83;9.75;;;;;;;6.42;86.42;102154.97;5043411;28;20041;-77
2023/04/18 02:10:45;;;;;;;19.20;9.52;;;;;;;6.37;87.04;102153.63;5054967;28;20106;-77
2023/04/18 02:13:11;;;;;;;16.38;9.15;;;;;;;6.46;86.53;102158.19;5041111;28;20040;-78
2023/04/18 02:15:36;;;;;;;18.38;10.85;;;;;;;6.48;86.44;102147.75;5058045;28;20070;-78
2023/04/18 02:18:02;;;;;;;21.15;9.57;;;;;;;6.39;86.79;102149.19;5058047;28;20762;-77
2023/04/18 02:20:32;;;;;;;18.38;9.80;;;;;;;6.43;86.92;102151.47;5030917;28;20020;-77
2023/04/18 02:23:01;;;;;;;20.88;9.93;;;;;;;6.37;86.61;102153.63;5042216;28;20036;-78
2023/04/18 02:25:29;;;;;;;20.25;10.40;;;;;;;6.44;86.87;102147.13;5044551;28;20032;-78
2023/04/18 02:27:56;;;;;;;20.88;11.13;;;;;;;6.34;87.50;102151.22;5042795;28;20064;-77
2023/04/18 02:30:22;;;;;;;24.30;9.73;;;;;;;6.30;87.59;102152.34;5064250;28;20126;-78
2023/04/18 02:32:57;;;;;;;18.75;9.85;;;;;;;6.21;88.20;102151.13;5042699;28;20020;-78
2023/04/18 02:35:24;;;;;;;19.50;10.02;;;;;;;6.24;87.67;102151.78;5039569;28;20446;-77
2023/04/18 02:37:49;;;;;;;21.73;9.52;;;;;;;6.20;88.52;102152.91;5058052;28;20043;-77
2023/04/18 02:40:16;;;;;;;15.38;9.38;;;;;;;6.21;88.54;102149.38;5056457;28;20024;-77
2023/04/18 02:42:41;;;;;;;15.30;8.75;;;;;;;6.16;88.94;102155.75;5057172;28;20119;-77
2023/04/18 02:45:08;;;;;;;20.10;10.68;;;;;;;6.12;89.28;102157.69;5063657;28;20353;-77
2023/04/18 02:47:34;;;;;;;16.35;9.20;;;;;;;6.09;89.27;102159.63;5057939;28;20472;-78
2023/04/18 02:50:00;;;;;;;19.08;9.13;;;;;;;6.12;88.92;102151.69;5043881;28;20119;-77
2023/04/18 02:52:26;;;;;;;23.63;9.85;;;;;;;6.13;89.14;102148.22;5064907;28;20513;-77
2023/04/18 02:54:52;;;;;;;20.27;9.60;;;;;;;6.08;89.47;102158.78;5041721;28;20033;-77
2023/04/18 02:57:23;;;;;;;16.50;9.95;;;;;;;5.99;89.92;102160.19;5032290;28;20031;-78
2023/04/18 03:00:12;;;;;;;19.00;10.23;;;;;;;5.91;90.30;102154.63;5056294;28;20502;-77
2023/04/18 03:02:58;;;;;;;17.27;8.85;;;;;;;5.93;90.11;102146.81;5043239;28;20098;-78
2023/04/18 03:05:44;;;;;;;18.55;8.75;;;;;;;5.87;90.77;102157.50;5049442;28;20025;-78
2023/04/18 03:08:10;;;;;;;19.23;8.60;;;;;;;5.90;91.06;102158.13;5037005;28;20033;-77
2023/04/18 03:10:37;;;;;;;15.68;8.88;;;;;;;5.91;90.26;102159.78;5064760;28;20056;-78
2023/04/18 03:13:03;;;;;;;19.30;9.05;;;;;;;5.84;91.17;102158.50;5048274;28;20044;-77
2023/04/18 03:15:30;;;;;;;20.38;9.23;;;;;;;5.91;90.81;102158.94;5043432;28;20025;-78
2023/04/18 03:17:56;;;;;;;15.90;8.30;;;;;;;5.80;91.09;102163.00;5062745;28;20559;-78
2023/04/18 03:20:22;;;;;;;14.13;8.88;;;;;;;5.79;91.14;102163.09;5033736;28;20545;-79
2023/04/18 03:22:48;;;;;;;17.67;9.68;;;;;;;5.74;91.30;102160.78;5039382;28;20044;-78
2023/04/18 03:25:18;;;;;;;18.55;9.55;;;;;;;5.70;91.34;102161.88;5045201;28;20020;-78
2023/04/18 03:27:50;;;;;;;19.17;9.55;;;;;;;5.68;91.69;102161.16;5046111;28;20028;-77
2023/04/18 03:30:19;;;;;;;16.17;8.98;;;;;;;5.61;92.29;102159.84;5079872;28;20028;-78
2023/04/18 03:32:51;;;;;;;15.10;8.43;;;;;;;5.62;92.87;102166.66;5044560;28;20044;-78
2023/04/18 03:35:17;;;;;;;14.88;8.98;;;;;;;5.56;92.79;102160.13;5031497;28;20441;-78
2023/04/18 03:37:43;;;;;;;17.27;8.45;;;;;;;5.53;92.61;102160.31;5040012;28;20108;-77
2023/04/18 03:40:10;;;;;;;13.13;7.93;;;;;;;5.58;92.17;102163.44;5067967;28;20024;-78
2023/04/18 03:42:35;;;;;;;15.27;8.30;;;;;;;5.51;92.67;102162.16;5070990;28;20033;-77
2023/04/18 03:45:01;;;;;;;13.85;8.23;;;;;;;5.52;92.20;102165.53;5051736;28;20041;-78
2023/04/18 03:47:30;;;;;;;14.32;8.75;;;;;;;5.45;92.98;102162.50;5050512;28;20130;-78
2023/04/18 03:49:57;;;;;;;14.57;8.45;;;;;;;5.47;92.80;102170.97;5048078;28;20114;-78
2023/04/18 03:52:24;;;;;;;14.93;8.50;;;;;;;5.46;92.81;102170.16;5034879;28;20032;-78
2023/04/18 03:54:49;;;;;;;14.25;7.78;;;;;;;5.43;92.69;102167.75;5040148;28;20557;-78
2023/04/18 03:57:18;;;;;;;15.18;7.90;;;;;;;5.42;93.11;102170.41;5048085;28;20090;-78
2023/04/18 03:59:43;;;;;;;12.77;8.07;;;;;;;5.42;92.82;102167.81;5067757;28;20409;-77
2023/04/18 04:02:09;;;;;;;14.02;8.43;;;;;;;5.43;92.78;102161.78;5068377;28;20044;-78
2023/04/18 04:04:34;;;;;;;15.45;8.63;;;;;;;5.33;92.82;102165.78;5059972;28;20482;-77
2023/04/18 04:07:00;;;;;;;15.90;8.13;;;;;;;5.32;92.88;102169.28;5084272;28;20029;-78
2023/04/18 04:09:25;;;;;;;11.85;7.25;;;;;;;5.26;93.41;102160.19;5065658;28;20074;-77
2023/04/18 04:11:51;;;;;;;15.60;8.02;;;;;;;5.41;92.97;102167.00;5073101;28;20064;-78
2023/04/18 04:14:17;;;;;;;14.55;8.65;;;;;;;5.30;92.97;102171.94;5044713;28;20029;-77
2023/04/18 04:16:44;;;;;;;13.82;8.00;;;;;;;5.22;93.11;102167.22;5047758;28;20032;-77
2023/04/18 04:19:13;;;;;;;15.27;8.15;;;;;;;5.17;93.57;102178.69;5064994;28;20064;-77
2023/04/18 04:21:46;;;;;;;13.93;8.07;;;;;;;5.14;93.92;102176.28;5042707;28;20043;-78
2023/04/18 04:24:15;;;;;;;15.13;8.38;;;;;;;5.12;94.28;102176.38;5041921;28;20028;-78
2023/04/18 04:26:44;;;;;;;15.05;8.07;;;;;;;5.15;93.93;102177.97;5040250;28;20036;-78
2023/04/18 04:29:16;;;;;;;13.53;7.80;;;;;;;5.16;93.96;102177.03;5050710;28;20068;-78
2023/04/18 04:31:44;;;;;;;14.57;8.25;;;;;;;5.05;94.42;102181.03;5033671;28;20039;-78
2023/04/18 04:34:11;;;;;;;12.75;7.45;;;;;;;5.02;95.19;102182.97;5064564;28;20384;-77
2023/04/18 04:36:40;;;;;;;15.80;8.55;;;;;;;5.02;95.11;102186.34;5046803;28;20037;-77
2023/04/18 04:39:05;;;;;;;12.43;7.45;;;;;;;5.02;95.25;102190.69;5077300;28;20033;-78
2023/04/18 04:41:42;;;;;;;15.27;7.90;;;;;;;4.98;95.22;102182.31;5046480;28;20475;-78
2023/04/18 04:44:08;;;;;;;13.68;7.82;;;;;;;5.10;94.82;102185.09;5046941;28;20056;-77
2023/04/18 04:46:38;;;;;;;15.23;7.97;;;;;;;5.19;94.45;102193.13;5058065;28;20028;-77
2023/04/18 04:49:07;;;;;;;13.60;8.15;;;;;;;5.06;94.89;102199.88;5028698;28;20550;-77
2023/04/18 04:51:33;;;;;;;12.90;8.30;;;;;;;5.13;94.22;102203.75;5050478;28;20033;-78
2023/04/18 04:53:58;;;;;;;13.27;8.25;;;;;;;5.09;94.71;102204.03;5039025;28;20050;-77
2023/04/18 04:56:24;;;;;;;13.05;7.43;;;;;;;5.09;94.60;102204.84;5030953;28;20035;-77
2023/04/18 04:58:50;;;;;;;15.25;8.77;;;;;;;5.05;94.72;102201.63;5064811;28;20279;-78
2023/04/18 05:01:25;;;;;;;16.05;8.07;;;;;;;5.03;95.34;102200.88;5049027;28;20405;-77
2023/04/18 05:03:51;;;;;;;16.38;8.05;;;;;;;5.01;95.36;102204.44;5053709;28;20037;-77
2023/04/18 05:06:19;;;;;;;14.07;8.23;;;;;;;4.97;95.64;102208.94;5049924;28;20512;-78
2023/04/18 05:08:48;;;;;;;13.93;8.15;;;;;;;5.00;96.14;102213.88;5069732;28;20102;-77
2023/04/18 05:11:14;;;;;;;19.77;9.73;;;;;;;4.94;96.32;102221.94;5055815;28;20039;-77
2023/04/18 05:13:40;;;;;;;15.35;8.80;;;;;;;4.96;95.85;102221.88;5047994;28;20434;-77
2023/04/18 05:16:06;;;;;;;18.75;8.70;;;;;;;4.95;96.14;102222.78;5052344;28;20036;-78
2023/04/18 05:18:32;;;;;;;15.07;8.07;;;;;;;4.99;96.12;102221.69;5045458;28;20037;-77
2023/04/18 05:20:57;;;;;;;15.70;8.75;;;;;;;5.04;96.33;102217.13;5063959;28;20039;-78
2023/04/18 05:23:23;;;;;;;14.52;8.10;;;;;;;5.03;96.43;102213.72;5066407;28;20036;-77
2023/04/18 05:25:48;;;;;;;17.10;8.48;;;;;;;5.04;96.23;102222.25;5035776;28;20029;-78
2023/04/18 05:28:14;;;;;;;16.42;8.77;;;;;;;4.99;96.43;102226.81;5049857;28;20040;-77
2023/04/18 05:30:40;;;;;;;16.63;9.82;;;;;;;4.99;96.57;102234.53;5057765;28;20025;-77
2023/04/18 05:33:06;;;;;;;16.55;8.25;;;;;;;5.03;96.75;102238.63;5047519;28;20036;-77
2023/04/18 05:35:31;;;;;;;16.05;9.32;;;;;;;5.09;96.41;102242.59;5037170;28;20028;-77
2023/04/18 05:37:57;;;;;;;16.55;8.35;;;;;;;5.09;96.65;102250.31;5072441;28;24815;-78
2023/04/18 05:40:23;;;;;;;18.00;9.23;;;;;;;5.08;96.91;102246.88;5050936;28;20407;-77
2023/04/18 05:42:49;;;;;;;16.40;9.40;;;;;;;5.17;97.29;102250.72;5048867;28;20036;-77
2023/04/18 05:45:14;;;;;;;19.60;9.85;;;;;;;5.19;96.88;102254.84;5034014;28;20025;-78
2023/04/18 05:47:40;;;;;;;15.20;8.40;;;;;;;5.18;97.58;102258.34;5060511;28;20081;-77
2023/04/18 05:50:06;;;;;;;16.13;9.65;;;;;;;5.29;97.87;102256.91;5066827;28;20071;-77
2023/04/18 05:52:31;;;;;;;18.77;9.13;;;;;;;5.28;97.44;102255.25;5064466;28;20468;-77
2023/04/18 05:54:57;;;;;;;15.07;9.70;;;;;;;5.36;97.57;102259.03;5031811;28;20029;-78
2023/04/18 05:57:22;;;;;;;18.80;9.10;;;;;;;5.35;97.77;102261.69;5070473;28;20036;-78
2023/04/18 05:59:48;;;;;;;19.02;9.90;;;;;;;5.41;98.05;102261.38;5069169;28;20040;-77
2023/04/18 06:02:13;;;;;;;16.92;9.60;;;;;;;5.47;97.87;102253.28;5064109;28;20033;-77
2023/04/18 06:04:42;;;;;;;16.55;10.10;;;;;;;5.52;98.07;102261.59;5046108;28;20029;-78
2023/04/18 06:07:08;;;;;;;15.45;9.60;;;;;;;5.64;97.24;102266.03;5078375;28;20025;-79
2023/04/18 06:09:34;;;;;;;16.83;10.63;;;;;;;5.68;97.24;102263.28;5063836;28;20052;-78
2023/04/18 06:12:00;;;;;;;17.15;9.60;;;;;;;5.67;97.63;102267.59;5056135;28;20129;-77
2023/04/18 06:14:26;;;;;;;19.40;10.15;;;;;;;5.69;97.21;102270.91;5052077;28;20115;-78
2023/04/18 06:16:52;;;;;;;18.55;10.07;;;;;;;5.80;97.13;102268.56;5063476;28;20127;-79
2023/04/18 06:19:17;;;;;;;19.58;9.77;;;;;;;5.78;96.90;102275.53;5047925;28;20419;-78
2023/04/18 06:21:43;;;;;;;17.80;10.07;;;;;;;5.84;97.73;102272.59;5057163;28;20478;-77
2023/04/18 06:24:08;;;;;;;20.48;11.60;;;;;;;5.90;97.20;102270.59;5059200;28;20040;-77
2023/04/18 06:26:34;;;;;;;18.77;10.73;;;;;;;5.95;97.10;102282.31;5032358;28;20035;-77
2023/04/18 06:29:00;;;;;;;16.70;10.13;;;;;;;6.08;96.91;102279.81;5045607;28;20036;-79
2023/04/18 06:31:25;;;;;;;21.05;10.98;;;;;;;6.20;96.98;102278.28;5046049;28;20372;-78
2023/04/18 06:33:51;;;;;;;19.42;11.30;;;;;;;6.22;96.03;102284.19;5046358;28;20070;-77
2023/04/18 06:36:17;;;;;;;23.95;13.02;;;;;;;6.37;95.45;102283.25;5046151;28;20041;-76
2023/04/18 06:38:42;;;;;;;19.42;11.35;;;;;;;6.36;95.82;102278.19;5029592;28;20079;-78
2023/04/18 06:41:08;;;;;;;22.60;12.00;;;;;;;6.44;95.77;102278.53;5065579;28;20044;-77
2023/04/18 06:43:34;;;;;;;20.85;11.70;;;;;;;6.59;95.03;102277.63;5061629;28;20441;-77
2023/04/18 06:46:01;;;;;;;21.58;11.52;;;;;;;6.78;94.34;102285.06;5064755;28;20036;-77
2023/04/18 06:48:27;;;;;;;22.70;12.85;;;;;;;6.83;93.35;102284.78;5037643;28;20394;-78
2023/04/18 06:50:52;;;;;;;25.88;12.90;;;;;;;6.83;93.87;102285.59;5030022;28;20017;-76
2023/04/18 06:53:18;;;;;;;26.05;12.00;;;;;;;6.90;93.57;102283.47;5041968;28;20050;-78
2023/04/18 06:55:43;;;;;;;23.73;12.65;;;;;;;7.03;91.14;102291.28;5060733;28;20032;-76
2023/04/18 06:58:09;;;;;;;22.80;11.77;;;;;;;7.24;89.34;102285.69;5034109;28;20037;-76
2023/04/18 07:00:34;;;;;;;24.67;12.95;;;;;;;7.26;90.33;102291.56;5031784;28;20487;-77
2023/04/18 07:03:01;;;;;;;21.98;12.30;;;;;;;7.36;90.29;102293.44;5047731;28;20036;-78
2023/04/18 07:05:26;;;;;;;21.13;12.00;;;;;;;7.48;88.68;102284.09;5062401;28;20074;-77
2023/04/18 07:07:52;;;;;;;21.38;12.73;;;;;;;7.75;87.78;102281.44;5066541;28;20040;-77
2023/04/18 07:10:17;;;;;;;21.42;11.63;;;;;;;8.52;84.89;102285.81;5050600;28;20033;-77
2023/04/18 07:12:43;;;;;;;22.83;11.65;;;;;;;9.79;78.25;102281.00;5070076;28;20037;-78
2023/04/18 07:15:09;;;;;;;22.42;11.95;;;;;;;10.58;74.08;102281.06;5066264;28;20036;-77
2023/04/18 07:17:35;;;;;;;18.23;10.77;;;;;;;11.15;71.05;102274.00;5052333;28;20033;-77
2023/04/18 07:20:01;;;;;;;16.98;10.48;;;;;;;11.49;69.09;102266.84;5056366;28;20078;-78
2023/04/18 07:22:26;;;;;;;16.70;10.15;;;;;;;11.72;66.17;102277.13;5055305;28;20068;-77
2023/04/18 07:24:52;;;;;;;15.68;9.60;;;;;;;12.13;67.07;102280.66;5068007;28;20036;-77
2023/04/18 07:27:17;;;;;;;18.95;9.85;;;;;;;12.21;64.91;102278.22;5050127;28;20036;-78
2023/04/18 07:29:43;;;;;;;15.30;9.68;;;;;;;11.84;65.05;102278.69;5069498;28;20449;-77
2023/04/18 07:32:09;;;;;;;16.77;9.43;;;;;;;11.92;63.68;102278.06;5070350;28;20410;-78
2023/04/18 07:34:36;;;;;;;14.30;8.88;;;;;;;12.36;62.84;102281.28;5064061;28;20047;-78
2023/04/18 07:37:02;;;;;;;16.15;8.90;;;;;;;12.16;62.02;102280.38;5050493;28;20115;-76
2023/04/18 07:39:27;;;;;;;13.85;8.50;;;;;;;11.95;62.97;102277.81;5048936;28;20119;-78
2023/04/18 07:41:53;;;;;;;13.57;8.75;;;;;;;12.41;62.66;102280.88;5067737;28;20035;-79
2023/04/18 07:44:20;;;;;;;14.18;8.80;;;;;;;12.26;63.09;102281.25;5050559;28;20487;-78
2023/04/18 07:46:45;;;;;;;16.10;8.55;;;;;;;12.31;61.79;102283.47;5035692;28;20112;-78
2023/04/18 07:49:11;;;;;;;11.98;7.82;;;;;;;12.48;60.55;102276.00;5068072;28;20082;-78
2023/04/18 07:51:36;;;;;;;13.68;8.02;;;;;;;12.66;59.13;102272.63;5035296;28;20368;-78
2023/04/18 07:54:02;;;;;;;16.50;7.43;;;;;;;12.84;59.65;102270.16;5050737;28;20421;-78
2023/04/18 07:56:27;;;;;;;13.00;7.38;;;;;;;13.30;59.09;102283.53;5068865;28;20040;-78
2023/04/18 07:58:53;;;;;;;10.20;6.28;;;;;;;13.30;58.90;102267.91;5063803;28;20044;-78
2023/04/18 08:01:22;;;;;;;11.27;6.65;;;;;;;12.94;59.08;102275.41;5056650;28;20075;-78
2023/04/18 08:03:48;;;;;;;8.43;6.32;;;;;;;12.76;59.08;102280.44;5051330;28;20064;-77
2023/04/18 08:06:14;;;;;;;11.95;6.53;;;;;;;13.03;58.36;102277.19;5047233;28;20074;-78
2023/04/18 08:08:39;;;;;;;9.95;6.38;;;;;;;13.55;58.38;102273.50;5066322;28;20521;-79
2023/04/18 08:11:05;;;;;;;9.63;6.35;;;;;;;14.16;57.17;102288.69;5052269;28;20086;-79
2023/04/18 08:13:30;;;;;;;9.55;6.30;;;;;;;13.74;56.82;102278.66;5033290;28;20032;-78
2023/04/18 08:15:58;;;;;;;11.02;7.03;;;;;;;13.38;57.70;102288.88;5062683;28;20028;-79
2023/04/18 08:18:24;;;;;;;10.25;7.32;;;;;;;14.45;56.64;102279.91;5069669;28;20063;-78
2023/04/18 08:20:50;;;;;;;9.23;6.45;;;;;;;13.91;56.32;102290.16;5072759;28;20028;-77
2023/04/18 08:23:15;;;;;;;9.50;6.57;;;;;;;13.28;59.84;102281.97;5056347;28;20521;-77
2023/04/18 08:25:42;;;;;;;12.85;6.60;;;;;;;13.21;61.05;102279.94;5054342;28;20036;-78
2023/04/18 08:28:08;;;;;;;10.30;7.30;;;;;;;13.47;58.47;102289.81;5054360;28;20040;-79
2023/04/18 08:30:33;;;;;;;12.13;6.88;;;;;;;12.64;61.22;102290.16;5053275;28;20044;-77
2023/04/18 08:32:59;;;;;;;12.60;8.02;;;;;;;12.20;62.48;102297.38;5070092;28;20036;-78
2023/04/18 08:35:25;;;;;;;12.25;8.15;;;;;;;12.10;63.17;102301.72;5057967;28;20383;-79
2023/04/18 08:37:50;;;;;;;10.93;7.65;;;;;;;12.07;65.71;102297.59;5052927;28;20024;-77
2023/04/18 08:40:16;;;;;;;12.48;7.68;;;;;;;12.07;nan;102295.00;5069932;28;20055;-79
2023/04/18 08:42:45;;;;;;;13.60;7.95;;;;;;;11.56;66.76;102297.53;5066990;28;20036;-78
2023/04/18 08:45:13;;;;;;;11.38;7.75;;;;;;;11.21;66.68;102301.22;5059497;28;20025;-80
2023/04/18 08:47:40;;;;;;;12.57;8.13;;;;;;;11.15;68.20;102307.75;5067160;28;20067;-77
2023/04/18 08:50:08;;;;;;;12.05;7.35;;;;;;;10.27;69.05;102298.16;5047241;28;20032;-78
2023/04/18 08:52:35;;;;;;;10.63;7.22;;;;;;;10.57;70.55;102307.13;5069079;28;20051;-78
2023/04/18 08:55:01;;;;;;;11.60;7.72;;;;;;;10.69;70.04;102309.59;5052410;28;20051;-78
2023/04/18 08:57:28;;;;;;;13.73;7.78;;;;;;;10.67;70.24;102302.88;5049244;28;20044;-79
2023/04/18 08:59:55;;;;;;;14.15;8.15;;;;;;;10.36;72.11;102307.00;5065607;28;20044;-77
2023/04/18 09:02:25;;;;;;;13.35;8.32;;;;;;;10.44;72.08;102315.03;5071698;28;20119;-77
2023/04/18 09:04:54;;;;;;;15.07;8.30;;;;;;;10.37;72.45;102312.09;5062509;28;20029;-78
2023/04/18 09:07:27;;;;;;;11.32;7.45;;;;;;;10.35;71.64;102315.75;5051735;28;20045;-77
2023/04/18 09:09:58;;;;;;;13.02;7.90;;;;;;;10.26;72.62;102312.03;5047360;28;20036;-78
2023/04/18 09:12:28;;;;;;;13.52;7.53;;;;;;;10.44;72.03;102315.03;5067845;28;20496;-78
2023/04/18 09:15:09;;;;;;;12.35;8.40;;;;;;;10.56;72.35;102306.31;5048188;28;20036;-78
2023/04/18 09:17:41;;;;;;;17.88;9.25;;;;;;;10.44;71.98;102304.66;5069313;28;20495;-80
2023/04/18 09:20:11;;;;;;;14.68;8.68;;;;;;;10.42;74.14;102307.38;5046771;28;20036;-78
2023/04/18 09:22:47;;;;;;;15.63;8.35;;;;;;;10.74;72.42;102306.66;5071969;28;20490;-80
2023/04/18 09:25:40;;;;;;;12.38;8.55;;;;;;;10.59;71.93;102313.03;5057283;28;20048;-76
2023/04/18 09:28:29;;;;;;;14.32;8.18;;;;;;;10.27;71.61;102314.53;5066785;28;20090;-77
2023/04/18 09:31:17;;;;;;;15.68;8.40;;;;;;;10.28;73.14;102316.19;5052078;28;20112;-76
2023/04/18 09:33:53;;;;;;;14.57;8.50;;;;;;;10.39;71.72;102311.97;5034110;28;20526;-77
2023/04/18 09:36:30;;;;;;;15.18;9.25;;;;;;;10.26;72.03;102320.63;5068479;28;20032;-78
2023/04/18 09:38:55;;;;;;;15.32;8.38;;;;;;;10.12;71.45;102320.88;5033991;28;20028;-78
2023/04/18 09:41:22;;;;;;;14.02;8.48;;;;;;;10.26;72.30;102320.63;5043261;28;20414;-78
2023/04/18 09:43:48;;;;;;;13.93;8.63;;;;;;;10.25;73.74;102306.03;5027794;28;20033;-75
2023/04/18 09:46:16;;;;;;;13.45;8.73;;;;;;;10.27;72.30;102313.72;5032499;28;20067;-77
2023/04/18 09:48:41;;;;;;;13.27;8.15;;;;;;;10.43;72.64;102310.78;5061048;28;20032;-76
2023/04/18 09:51:09;;;;;;;14.63;9.15;;;;;;;10.71;73.48;102306.88;5062438;28;20024;-78
2023/04/18 09:53:39;;;;;;;16.55;9.95;;;;;;;10.55;72.76;102303.81;5041060;28;20066;-78
2023/04/18 09:56:08;;;;;;;17.98;8.85;;;;;;;11.10;72.57;102302.09;5048357;28;20048;-77
2023/04/18 09:58:39;;;;;;;15.40;9.40;;;;;;;11.40;70.15;102311.78;5042686;28;20044;-78
2023/04/18 10:01:06;;;;;;;15.55;9.70;;;;;;;11.52;70.45;102301.31;5063618;28;20020;-78
2023/04/18 10:03:39;;;;;;;17.90;9.75;;;;;;;11.59;69.99;102302.47;5047382;28;20465;-77
2023/04/18 10:06:05;;;;;;;14.32;8.75;;;;;;;11.67;69.93;102295.69;5046001;28;20032;-79
2023/04/18 10:08:31;;;;;;;17.85;10.07;;;;;;;11.24;69.68;102290.56;5062810;28;20033;-78
2023/04/18 10:10:57;;;;;;;18.15;10.15;;;;;;;11.48;70.38;102300.75;5058052;28;20060;-78
2023/04/18 10:13:26;;;;;;;19.60;9.60;;;;;;;11.42;69.32;102289.09;5057682;28;20040;-79
2023/04/18 10:15:52;;;;;;;17.83;10.05;;;;;;;11.36;69.68;102302.56;5043608;28;20032;-77
2023/04/18 10:18:21;;;;;;;19.02;11.15;;;;;;;10.94;70.48;102301.66;5047044;28;20498;-78
2023/04/18 10:20:47;;;;;;;17.45;9.88;;;;;;;10.84;72.16;102301.56;5063451;28;20036;-75
2023/04/18 10:23:31;;;;;;;17.40;9.52;;;;;;;10.90;72.32;102308.84;5043896;28;20039;-77
2023/04/18 10:25:57;;;;;;;19.13;9.95;;;;;;;10.77;72.69;102296.00;5065514;28;20021;-78
2023/04/18 10:28:23;;;;;;;17.73;10.27;;;;;;;10.86;74.01;102305.66;5060110;28;20072;-76
2023/04/18 10:30:51;;;;;;;16.42;9.98;;;;;;;10.85;72.57;102301.44;5064218;28;20487;-77
2023/04/18 10:33:39;;;;;;;18.60;10.40;;;;;;;11.00;71.87;102294.22;5042468;28;20102;-77
2023/04/18 10:36:12;;;;;;;20.05;10.20;;;;;;;10.89;73.33;102295.06;5048940;28;20415;-78
2023/04/18 10:38:44;;;;;;;17.63;9.70;;;;;;;10.83;74.18;102303.34;5043319;28;20075;-77
2023/04/18 10:41:16;;;;;;;18.25;10.32;;;;;;;10.89;74.00;102295.06;5048918;28;20037;-78
2023/04/18 10:44:21;;;;;;;16.80;9.88;;;;;;;10.68;72.59;102300.16;5062977;28;20032;-77
2023/04/18 10:46:52;;;;;;;17.23;9.43;;;;;;;10.69;75.01;102293.19;5044413;28;20086;-78
2023/04/18 10:49:21;;;;;;;18.02;9.77;;;;;;;10.95;74.11;102298.13;5063455;28;20048;-77
2023/04/18 10:51:51;;;;;;;19.58;9.75;;;;;;;10.96;74.36;102289.38;5061002;28;20040;-77
2023/04/18 10:54:31;;;;;;;19.08;10.23;;;;;;;10.91;73.78;102287.97;5061392;28;20047;-77
2023/04/18 10:57:00;;;;;;;18.60;11.02;;;;;;;11.13;74.67;102282.81;5079352;28;20584;-78
2023/04/18 10:59:28;;;;;;;22.63;10.52;;;;;;;11.43;74.75;102288.16;5040294;28;20044;-78
2023/04/18 11:02:24;;;;;;;17.95;10.05;;;;;;;11.62;73.40;102277.06;5052164;28;20033;-78
2023/04/18 11:04:54;;;;;;;16.77;10.10;;;;;;;11.76;71.73;102280.28;5053044;28;20059;-77
2023/04/18 11:07:33;;;;;;;20.42;10.18;;;;;;;11.49;71.22;102281.63;5040490;28;20036;-78
2023/04/18 11:09:59;;;;;;;25.35;11.27;;;;;;;11.45;72.08;102275.00;5060003;28;20082;-77
2023/04/18 11:12:29;;;;;;;20.83;10.57;;;;;;;11.34;72.62;102278.50;5059307;28;20025;-76
2023/04/18 11:14:54;;;;;;;18.80;10.45;;;;;;;11.35;73.30;102279.31;5058484;28;20061;-77
2023/04/18 11:17:24;;;;;;;17.88;10.10;;;;;;;11.15;73.26;102273.13;5044175;28;20032;-78
2023/04/18 11:19:57;;;;;;;21.20;10.52;;;;;;;10.91;73.90;102276.78;5031914;28;20036;-76
2023/04/18 11:22:23;;;;;;;20.35;10.88;;;;;;;10.97;73.96;102278.88;5066884;28;20033;-78
2023/04/18 11:24:49;;;;;;;17.10;10.02;;;;;;;10.99;74.24;102287.34;5063649;28;20036;-76